createdAt,value
2018-01-23T00:01:01.639Z,6.80
2018-01-23T00:03:29.784Z,6.90
2018-01-23T00:05:57.944Z,6.57
2018-01-23T00:08:26.063Z,7.70
2018-01-23T00:10:54.212Z,6.23
2018-01-23T00:13:23.121Z,6.63
2018-01-23T00:15:51.298Z,7.10
2018-01-23T00:18:19.436Z,6.97
2018-01-23T00:20:47.583Z,6.60
2018-01-23T00:23:15.749Z,6.40
2018-01-23T00:25:43.872Z,5.37
2018-01-23T00:28:12.015Z,6.17
2018-01-23T00:30:40.148Z,6.20
2018-01-23T00:33:08.308Z,6.37
2018-01-23T00:35:36.449Z,5.50
2018-01-23T00:38:05.349Z,5.90
2018-01-23T00:40:34.284Z,5.77
2018-01-23T00:43:03.225Z,5.90
2018-01-23T00:45:31.353Z,6.37
2018-01-23T00:47:59.500Z,6.17
2018-01-23T00:50:27.667Z,6.50
2018-01-23T00:52:55.838Z,5.87
2018-01-23T00:55:23.989Z,6.70
2018-01-23T00:57:52.720Z,5.63
2018-01-23T01:00:20.855Z,5.47
2018-01-23T01:02:49.007Z,5.63
2018-01-23T01:05:17.199Z,5.47
2018-01-23T01:07:45.349Z,5.60
2018-01-23T01:10:14.255Z,5.60
2018-01-23T01:12:42.417Z,5.20
2018-01-23T01:15:10.564Z,5.30
2018-01-23T01:17:39.468Z,5.80
2018-01-23T01:20:07.644Z,5.30
2018-01-23T01:22:35.825Z,5.30
2018-01-23T01:25:03.951Z,5.30
2018-01-23T01:27:32.111Z,6.17
2018-01-23T01:30:00.240Z,5.00
2018-01-23T01:32:29.125Z,6.13
2018-01-23T01:34:57.276Z,5.40
2018-01-23T01:37:25.415Z,5.10
2018-01-23T01:39:53.575Z,5.43
2018-01-23T01:42:21.720Z,5.23
2018-01-23T01:44:49.892Z,5.40
2018-01-23T01:47:18.788Z,6.10
2018-01-23T01:49:46.916Z,5.27
2018-01-23T01:52:15.057Z,5.37
2018-01-23T01:54:43.212Z,4.50
2018-01-23T01:57:11.404Z,5.30
2018-01-23T01:59:39.546Z,5.70
2018-01-23T02:02:07.697Z,6.77
2018-01-23T02:04:36.641Z,6.60
2018-01-23T02:07:04.788Z,6.20
2018-01-23T02:09:33.698Z,5.83
2018-01-23T02:12:02.612Z,5.77
2018-01-23T02:14:30.761Z,7.80
2018-01-23T02:16:58.924Z,6.77
2018-01-23T02:19:27.833Z,6.60
2018-01-23T02:21:55.974Z,6.13
2018-01-23T02:24:24.696Z,5.90
2018-01-23T02:26:52.826Z,6.40
2018-01-23T02:29:20.968Z,5.07
2018-01-23T02:31:49.108Z,5.47
2018-01-23T02:34:18.008Z,6.03
2018-01-23T02:36:46.162Z,5.33
2018-01-23T02:39:14.337Z,5.70
2018-01-23T02:41:43.112Z,5.83
2018-01-23T02:44:11.286Z,6.50
2018-01-23T02:46:39.424Z,5.43
2018-01-23T02:49:07.561Z,5.40
2018-01-23T02:51:35.700Z,6.10
2018-01-23T02:54:03.859Z,5.30
2018-01-23T02:56:32.006Z,5.80
2018-01-23T02:59:00.909Z,4.90
2018-01-23T03:01:29.839Z,6.40
2018-01-23T03:03:57.993Z,5.30
2018-01-23T03:06:26.894Z,6.57
2018-01-23T03:08:55.045Z,5.30
2018-01-23T03:11:23.178Z,4.53
2018-01-23T03:13:52.621Z,5.23
2018-01-23T03:16:20.757Z,5.27
2018-01-23T03:18:48.948Z,6.50
2018-01-23T03:21:17.086Z,5.63
2018-01-23T03:23:45.236Z,5.60
2018-01-23T03:26:14.154Z,4.80
2018-01-23T03:28:42.291Z,4.60
2018-01-23T03:31:10.438Z,5.83
2018-01-23T03:33:38.597Z,4.67
2018-01-23T03:36:08.377Z,4.30
2018-01-23T03:38:36.742Z,4.40
2018-01-23T03:41:04.870Z,6.53
2018-01-23T03:43:33.009Z,3.83
2018-01-23T03:46:01.148Z,4.70
2018-01-23T03:48:29.273Z,4.30
2018-01-23T03:50:58.180Z,3.53
2018-01-23T03:53:26.315Z,5.00
2018-01-23T03:55:54.483Z,4.47
2018-01-23T03:58:22.620Z,3.80
2018-01-23T04:00:51.517Z,4.20
2018-01-23T04:03:20.414Z,4.10
2018-01-23T04:05:48.584Z,3.90
2018-01-23T04:08:16.712Z,3.70
2018-01-23T04:10:44.857Z,3.10
2018-01-23T04:13:13.040Z,3.90
2018-01-23T04:15:41.176Z,3.87
2018-01-23T04:18:09.361Z,3.90
2018-01-23T04:20:37.521Z,4.00
2018-01-23T04:23:05.676Z,3.73
2018-01-23T04:25:33.817Z,3.23
2018-01-23T04:28:01.984Z,3.67
2018-01-23T04:30:30.126Z,3.60
2018-01-23T04:32:58.287Z,3.57
2018-01-23T04:35:26.419Z,3.47
2018-01-23T04:37:54.564Z,3.40
2018-01-23T04:40:22.712Z,3.30
2018-01-23T04:42:51.633Z,3.57
2018-01-23T04:45:20.541Z,3.10
2018-01-23T04:47:48.682Z,3.80
2018-01-23T04:50:16.841Z,3.70
2018-01-23T04:52:44.990Z,3.10
2018-01-23T04:55:13.920Z,3.80
2018-01-23T04:57:42.054Z,3.77
2018-01-23T05:00:10.228Z,3.00
2018-01-23T05:02:38.373Z,3.33
2018-01-23T05:05:06.507Z,3.20
2018-01-23T05:07:34.667Z,5.00
2018-01-23T05:10:02.814Z,3.00
2018-01-23T05:12:30.971Z,3.40
2018-01-23T05:15:00.374Z,3.77
2018-01-23T05:17:28.498Z,3.20
2018-01-23T05:19:56.648Z,4.20
2018-01-23T05:22:24.814Z,4.17
2018-01-23T05:24:53.706Z,4.83
2018-01-23T05:27:21.840Z,3.70
2018-01-23T05:29:49.988Z,4.00
2018-01-23T05:32:19.315Z,3.87
2018-01-23T05:34:47.456Z,3.57
2018-01-23T05:37:15.583Z,3.53
2018-01-23T05:39:43.756Z,3.70
2018-01-23T05:42:11.895Z,4.80
2018-01-23T05:44:40.049Z,4.70
2018-01-23T05:47:08.185Z,4.03
2018-01-23T05:49:36.336Z,5.03
2018-01-23T05:52:05.248Z,4.40
2018-01-23T05:54:34.196Z,5.00
2018-01-23T05:57:02.320Z,4.23
2018-01-23T05:59:30.496Z,5.20
2018-01-23T06:01:58.633Z,5.20
2018-01-23T06:04:26.802Z,4.40
2018-01-23T06:06:54.960Z,5.00
2018-01-23T06:09:23.092Z,3.90
2018-01-23T06:11:51.256Z,4.53
2018-01-23T06:14:20.168Z,4.40
2018-01-23T06:16:48.303Z,4.50
2018-01-23T06:19:17.237Z,4.17
2018-01-23T06:21:45.371Z,4.47
2018-01-23T06:24:13.536Z,4.70
2018-01-23T06:26:41.650Z,4.17
2018-01-23T06:29:09.816Z,5.30
2018-01-23T06:31:37.987Z,5.27
2018-01-23T06:34:06.141Z,4.83
2018-01-23T06:36:34.313Z,4.70
2018-01-23T06:39:02.484Z,6.77
2018-01-23T06:41:30.648Z,12.97
2018-01-23T06:43:58.802Z,5.80
2018-01-23T06:46:26.955Z,7.20
2018-01-23T06:48:55.126Z,7.07
2018-01-23T06:51:23.270Z,5.03
2018-01-23T06:53:52.271Z,4.23
2018-01-23T06:56:20.447Z,6.47
2018-01-23T06:58:48.593Z,5.80
2018-01-23T07:01:16.799Z,4.77
2018-01-23T07:03:44.894Z,6.30
2018-01-23T07:06:13.047Z,5.20
2018-01-23T07:08:41.183Z,6.37
2018-01-23T07:11:10.136Z,4.67
2018-01-23T07:13:38.256Z,4.47
2018-01-23T07:16:06.393Z,4.57
2018-01-23T07:18:34.541Z,5.60
2018-01-23T07:21:02.669Z,5.53
2018-01-23T07:23:30.820Z,4.80
2018-01-23T07:25:58.963Z,6.13
2018-01-23T07:28:27.111Z,4.60
2018-01-23T07:30:56.022Z,5.10
2018-01-23T07:33:24.167Z,7.57
2018-01-23T07:35:52.312Z,9.67
2018-01-23T07:38:20.469Z,9.10
2018-01-23T07:40:48.623Z,8.40
2018-01-23T07:43:16.795Z,8.70
2018-01-23T07:45:45.704Z,8.67
2018-01-23T07:48:13.876Z,6.63
2018-01-23T07:50:42.007Z,7.10
2018-01-23T07:53:11.493Z,7.20
2018-01-23T07:55:39.655Z,7.00
2018-01-23T07:58:07.802Z,6.20
2018-01-23T08:00:36.744Z,6.50
2018-01-23T08:03:05.581Z,7.80
2018-01-23T08:05:33.703Z,7.90
2018-01-23T08:08:01.879Z,7.40
2018-01-23T08:10:30.794Z,7.43
2018-01-23T08:12:58.954Z,7.67
2018-01-23T08:15:27.069Z,6.37
2018-01-23T08:17:55.267Z,7.10
2018-01-23T08:20:23.400Z,7.50
2018-01-23T08:22:52.358Z,5.90
2018-01-23T08:25:21.039Z,6.30
2018-01-23T08:27:49.197Z,5.70
2018-01-23T08:30:17.321Z,5.60
2018-01-23T08:32:45.505Z,6.40
2018-01-23T08:35:13.658Z,5.37
2018-01-23T08:37:41.777Z,6.27
2018-01-23T08:40:09.932Z,6.23
2018-01-23T08:42:38.076Z,5.97
2018-01-23T08:45:06.245Z,5.50
2018-01-23T08:47:34.380Z,5.23
2018-01-23T08:50:02.537Z,6.33
2018-01-23T08:52:30.661Z,5.10
2018-01-23T08:54:58.830Z,5.53
2018-01-23T08:57:26.964Z,5.33
2018-01-23T08:59:55.810Z,5.17
2018-01-23T09:02:23.960Z,4.77
2018-01-23T09:04:52.105Z,4.50
2018-01-23T09:07:20.247Z,5.70
2018-01-23T09:09:48.424Z,5.40
2018-01-23T09:12:16.541Z,4.83
2018-01-23T09:14:44.708Z,6.40
2018-01-23T09:17:12.858Z,6.20
2018-01-23T09:19:41.003Z,5.97
2018-01-23T09:22:09.159Z,5.10
2018-01-23T09:24:37.306Z,4.90
2018-01-23T09:27:05.463Z,7.17
2018-01-23T09:29:33.602Z,5.27
2018-01-23T09:32:01.765Z,6.57
2018-01-23T09:34:31.663Z,5.90
2018-01-23T09:36:59.796Z,5.80
2018-01-23T09:39:27.937Z,5.10
2018-01-23T09:41:56.108Z,6.30
2018-01-23T09:44:24.245Z,6.30
2018-01-23T09:46:52.432Z,4.80
2018-01-23T09:49:21.860Z,5.90
2018-01-23T09:51:50.006Z,5.27
2018-01-23T09:54:19.960Z,4.97
2018-01-23T09:56:48.875Z,5.63
2018-01-23T09:59:17.781Z,4.50
2018-01-23T10:01:45.937Z,5.43
2018-01-23T10:04:14.063Z,5.10
2018-01-23T10:06:42.250Z,6.53
2018-01-23T10:09:10.409Z,5.70
2018-01-23T10:11:39.312Z,5.30
2018-01-23T10:14:07.482Z,6.40
2018-01-23T10:16:35.671Z,4.43
2018-01-23T10:19:03.837Z,5.30
2018-01-23T10:21:31.964Z,5.87
2018-01-23T10:24:00.188Z,5.10
2018-01-23T10:26:28.326Z,5.40
2018-01-23T10:28:56.496Z,4.40
2018-01-23T10:31:24.637Z,5.57
2018-01-23T10:33:52.815Z,6.90
2018-01-23T10:36:20.949Z,6.40
2018-01-23T10:38:49.093Z,6.50
2018-01-23T10:41:17.299Z,5.70
2018-01-23T10:43:45.441Z,5.10
2018-01-23T10:46:13.590Z,5.00
2018-01-23T10:48:41.748Z,5.23
2018-01-23T10:51:09.880Z,4.50
2018-01-23T10:53:38.048Z,5.87
2018-01-23T10:56:06.202Z,4.60
2018-01-23T10:58:34.369Z,4.43
2018-01-23T11:01:06.321Z,4.80
2018-01-23T11:03:35.257Z,4.67
2018-01-23T11:06:03.583Z,4.00
2018-01-23T11:08:32.485Z,4.97
2018-01-23T11:11:00.668Z,4.30
2018-01-23T11:13:28.835Z,4.00
2018-01-23T11:15:56.975Z,6.23
2018-01-23T11:18:25.136Z,4.00
2018-01-23T11:20:53.293Z,4.80
2018-01-23T11:23:22.056Z,4.43
2018-01-23T11:25:51.032Z,4.90
2018-01-23T11:28:19.158Z,4.70
2018-01-23T11:30:47.315Z,3.70
2018-01-23T11:33:16.572Z,4.70
2018-01-23T11:35:44.716Z,4.37
2018-01-23T11:38:12.892Z,5.47
2018-01-23T11:40:41.018Z,5.10
2018-01-23T11:43:09.177Z,4.80
2018-01-23T11:45:38.102Z,3.70
2018-01-23T11:48:07.029Z,4.30
2018-01-23T11:50:35.166Z,4.87
2018-01-23T11:53:03.327Z,4.33
2018-01-23T11:55:31.491Z,3.60
2018-01-23T11:57:59.648Z,4.73
2018-01-23T12:00:27.810Z,4.27
2018-01-23T12:02:55.981Z,3.60
2018-01-23T12:05:25.142Z,4.40
2018-01-23T12:07:53.301Z,3.67
2018-01-23T12:10:22.245Z,4.60
2018-01-23T12:12:50.560Z,4.27
2018-01-23T12:15:18.777Z,3.90
2018-01-23T12:17:47.703Z,4.60
2018-01-23T12:20:17.276Z,3.93
2018-01-23T12:22:45.406Z,4.60
2018-01-23T12:25:14.343Z,4.27
2018-01-23T12:27:43.789Z,4.00
2018-01-23T12:30:11.939Z,4.80
2018-01-23T12:32:40.120Z,4.83
2018-01-23T12:35:09.206Z,4.80
2018-01-23T12:37:37.328Z,4.90
2018-01-23T12:40:06.270Z,5.63
2018-01-23T12:42:34.465Z,3.80
2018-01-23T12:45:02.645Z,5.20
2018-01-23T12:47:30.813Z,4.87
2018-01-23T12:49:59.001Z,4.77
2018-01-23T12:52:27.173Z,5.20
2018-01-23T12:54:55.332Z,4.97
2018-01-23T12:57:23.493Z,4.93
2018-01-23T12:59:52.396Z,5.10
2018-01-23T13:02:20.602Z,5.40
2018-01-23T13:04:49.506Z,5.40
2018-01-23T13:07:17.693Z,5.30
2018-01-23T13:09:45.876Z,4.30
2018-01-23T13:12:14.086Z,5.17
2018-01-23T13:14:42.242Z,5.53
2018-01-23T13:17:11.135Z,5.03
2018-01-23T13:19:39.301Z,5.27
2018-01-23T13:22:07.471Z,4.63
2018-01-23T13:24:35.623Z,5.23
2018-01-23T13:27:03.772Z,5.10
2018-01-23T13:29:31.920Z,6.83
2018-01-23T13:32:00.082Z,5.30
2018-01-23T13:34:28.210Z,5.70
2018-01-23T13:36:56.945Z,6.13
2018-01-23T13:39:25.111Z,4.57
2018-01-23T13:41:53.260Z,4.90
2018-01-23T13:44:21.402Z,4.40
2018-01-23T13:46:49.568Z,4.93
2018-01-23T13:49:18.006Z,5.10
2018-01-23T13:51:46.162Z,4.80
2018-01-23T13:54:15.030Z,5.90
2018-01-23T13:56:43.983Z,5.33
2018-01-23T13:59:12.907Z,5.40
2018-01-23T14:01:41.045Z,5.00
2018-01-23T14:04:09.213Z,4.37
2018-01-23T14:06:37.368Z,5.20
2018-01-23T14:09:05.548Z,5.23
2018-01-23T14:11:33.707Z,4.20
2018-01-23T14:14:02.655Z,4.30
2018-01-23T14:16:30.795Z,4.87
2018-01-23T14:18:58.998Z,5.43
2018-01-23T14:21:27.905Z,4.53
2018-01-23T14:23:56.857Z,4.03
2018-01-23T14:26:26.209Z,4.17
2018-01-23T14:28:55.149Z,4.43
2018-01-23T14:31:23.289Z,5.07
2018-01-23T14:33:52.199Z,4.03
2018-01-23T14:36:20.340Z,5.97
2018-01-23T14:38:48.507Z,5.20
2018-01-23T14:41:17.515Z,4.40
2018-01-23T14:43:45.627Z,4.17
2018-01-23T14:46:13.781Z,4.20
2018-01-23T14:48:41.929Z,4.20
2018-01-23T14:51:10.085Z,5.30
2018-01-23T14:53:38.222Z,5.80
2018-01-23T14:56:06.373Z,6.83
2018-01-23T14:58:34.499Z,6.70
2018-01-23T15:01:02.677Z,5.87
2018-01-23T15:03:32.228Z,4.37
2018-01-23T15:06:01.074Z,3.70
2018-01-23T15:08:29.230Z,4.80
2018-01-23T15:10:57.368Z,4.37
2018-01-23T15:13:26.296Z,5.20
2018-01-23T15:15:54.430Z,4.33
2018-01-23T15:18:22.573Z,4.10
2018-01-23T15:20:51.164Z,3.87
2018-01-23T15:23:19.317Z,3.70
2018-01-23T15:25:48.237Z,6.40
2018-01-23T15:28:16.398Z,4.30
2018-01-23T15:30:44.545Z,5.00
2018-01-23T15:33:12.693Z,5.40
2018-01-23T15:35:41.603Z,5.67
2018-01-23T15:38:09.753Z,6.83
2018-01-23T15:40:37.908Z,6.57
2018-01-23T15:43:06.053Z,5.33
2018-01-23T15:45:34.964Z,6.30
2018-01-23T15:48:03.898Z,6.20
2018-01-23T15:50:32.032Z,5.60
2018-01-23T15:53:01.517Z,4.90
2018-01-23T15:55:29.698Z,5.37
2018-01-23T15:57:57.840Z,4.97
2018-01-23T16:00:26.740Z,4.50
2018-01-23T16:02:54.882Z,5.90
2018-01-23T16:05:23.771Z,5.20
2018-01-23T16:07:51.922Z,5.87
2018-01-23T16:10:20.837Z,6.17
2018-01-23T16:12:49.011Z,6.00
2018-01-23T16:15:17.196Z,5.37
2018-01-23T16:17:45.375Z,5.33
2018-01-23T16:20:14.284Z,5.37
2018-01-23T16:22:43.232Z,5.37
2018-01-23T16:25:11.368Z,6.00
2018-01-23T16:27:40.308Z,5.40
2018-01-23T16:30:08.499Z,5.23
2018-01-23T16:32:37.279Z,6.17
2018-01-23T16:35:06.227Z,7.13
2018-01-23T16:37:34.393Z,6.67
2018-01-23T16:40:02.549Z,6.00
2018-01-23T16:42:30.748Z,6.43
2018-01-23T16:44:58.877Z,6.80
2018-01-23T16:47:27.040Z,5.40
2018-01-23T16:49:55.193Z,6.27
2018-01-23T16:52:24.115Z,6.10
2018-01-23T16:54:52.271Z,6.50
2018-01-23T16:57:20.420Z,6.40
2018-01-23T16:59:48.588Z,7.00
2018-01-23T17:02:16.718Z,6.27
2018-01-23T17:04:44.863Z,6.83
2018-01-23T17:07:13.002Z,6.50
2018-01-23T17:09:41.934Z,6.93
2018-01-23T17:12:11.056Z,8.13
2018-01-23T17:14:39.208Z,7.30
2018-01-23T17:17:08.117Z,6.77
2018-01-23T17:19:37.091Z,8.20
2018-01-23T17:22:06.550Z,6.80
2018-01-23T17:24:34.763Z,7.03
2018-01-23T17:27:02.994Z,7.07
2018-01-23T17:29:32.093Z,6.80
2018-01-23T17:32:01.317Z,7.63
2018-01-23T17:34:30.508Z,6.60
2018-01-23T17:36:59.750Z,6.97
2018-01-23T17:39:28.171Z,6.13
2018-01-23T17:41:56.688Z,7.80
2018-01-23T17:44:25.894Z,7.50
2018-01-23T17:46:54.351Z,7.07
2018-01-23T17:49:22.806Z,7.27
2018-01-23T17:51:51.959Z,6.90
2018-01-23T17:54:20.360Z,6.57
2018-01-23T17:56:48.753Z,6.50
2018-01-23T17:59:17.212Z,7.73
2018-01-23T18:01:45.643Z,7.07
2018-01-23T18:04:14.044Z,6.00
2018-01-23T18:06:43.162Z,6.87
2018-01-23T18:09:11.532Z,6.13
2018-01-23T18:11:39.909Z,7.47
2018-01-23T18:14:08.214Z,6.47
2018-01-23T18:16:37.220Z,6.93
2018-01-23T18:19:05.449Z,9.13
2018-01-23T18:21:33.622Z,7.30
2018-01-23T18:24:01.813Z,6.47
2018-01-23T18:26:29.962Z,7.23
2018-01-23T18:28:58.107Z,6.87
2018-01-23T18:31:26.868Z,8.90
2018-01-23T18:33:55.219Z,7.87
2018-01-23T18:36:24.229Z,8.20
2018-01-23T18:38:53.170Z,8.40
2018-01-23T18:41:21.345Z,7.40
2018-01-23T18:43:49.510Z,6.83
2018-01-23T18:46:18.512Z,7.03
2018-01-23T18:48:46.781Z,7.50
2018-01-23T18:51:15.843Z,6.60
2018-01-23T18:53:44.270Z,6.83
2018-01-23T18:56:13.310Z,6.37
2018-01-23T18:58:42.560Z,5.60
2018-01-23T19:01:10.824Z,5.47
2018-01-23T19:03:39.555Z,6.07
2018-01-23T19:06:07.894Z,5.50
2018-01-23T19:08:36.353Z,6.03
2018-01-23T19:11:06.250Z,4.83
2018-01-23T19:13:34.608Z,5.17
2018-01-23T19:16:02.941Z,6.10
2018-01-23T19:18:31.305Z,4.90
2018-01-23T19:21:00.415Z,6.03
2018-01-23T19:23:29.653Z,6.57
2018-01-23T19:25:57.801Z,5.40
2018-01-23T19:28:25.979Z,6.73
2018-01-23T19:30:54.875Z,6.43
2018-01-23T19:33:23.813Z,5.97
2018-01-23T19:35:51.982Z,6.40
2018-01-23T19:38:20.900Z,6.47
2018-01-23T19:40:49.062Z,6.97
2018-01-23T19:43:17.268Z,7.83
2018-01-23T19:45:45.412Z,5.33
2018-01-23T19:48:13.576Z,4.80
2018-01-23T19:50:42.525Z,5.37
2018-01-23T19:53:11.428Z,5.17
2018-01-23T19:55:40.356Z,4.70
2018-01-23T19:58:08.500Z,4.87
2018-01-23T20:00:38.562Z,4.10
2018-01-23T20:03:07.493Z,5.00
2018-01-23T20:05:35.623Z,5.23
2018-01-23T20:08:03.805Z,4.30
2018-01-23T20:10:32.002Z,4.67
2018-01-23T20:13:00.914Z,4.20
2018-01-23T20:15:30.550Z,4.27
2018-01-23T20:17:59.491Z,3.53
2018-01-23T20:20:27.697Z,4.03
2018-01-23T20:22:55.868Z,5.10
2018-01-23T20:25:24.026Z,3.80
2018-01-23T20:27:52.207Z,4.07
2018-01-23T20:30:20.375Z,4.27
2018-01-23T20:32:48.546Z,4.00
2018-01-23T20:35:18.400Z,3.60
2018-01-23T20:37:48.088Z,3.77
2018-01-23T20:40:18.456Z,4.00
2018-01-23T20:42:47.405Z,3.43
2018-01-23T20:45:16.482Z,4.30
2018-01-23T20:47:44.596Z,4.07
2018-01-23T20:50:13.540Z,3.50
2018-01-23T20:52:42.465Z,3.63
2018-01-23T20:55:11.419Z,3.23
2018-01-23T20:57:39.565Z,3.50
2018-01-23T21:00:07.718Z,3.83
2018-01-23T21:02:35.865Z,4.43
2018-01-23T21:05:04.038Z,3.70
2018-01-23T21:07:32.903Z,3.77
2018-01-23T21:10:01.853Z,4.10
2018-01-23T21:12:30.006Z,3.57
2018-01-23T21:14:58.920Z,4.80
2018-01-23T21:17:28.494Z,3.57
2018-01-23T21:19:56.655Z,3.80
2018-01-23T21:22:26.781Z,3.77
2018-01-23T21:24:55.779Z,3.83
2018-01-23T21:27:23.939Z,3.70
2018-01-23T21:29:52.109Z,4.47
2018-01-23T21:32:21.193Z,3.93
2018-01-23T21:34:49.406Z,3.33
2018-01-23T21:37:17.627Z,3.47
2018-01-23T21:39:45.757Z,3.33
2018-01-23T21:42:13.891Z,3.60
2018-01-23T21:44:42.085Z,3.77
2018-01-23T21:47:10.243Z,3.67
2018-01-23T21:49:39.179Z,3.60
2018-01-23T21:52:08.202Z,3.30
2018-01-23T21:54:36.358Z,4.53
2018-01-23T21:57:05.288Z,4.00
2018-01-23T21:59:33.428Z,3.50
2018-01-23T22:02:02.311Z,3.50
2018-01-23T22:04:31.263Z,3.80
2018-01-23T22:06:59.392Z,3.10
2018-01-23T22:09:27.547Z,3.20
2018-01-23T22:11:55.684Z,5.13
2018-01-23T22:14:23.841Z,3.20
2018-01-23T22:16:51.994Z,3.87
2018-01-23T22:19:20.851Z,3.40
2018-01-23T22:21:49.030Z,3.40
2018-01-23T22:24:17.179Z,3.97
2018-01-23T22:26:45.319Z,3.03
2018-01-23T22:29:14.208Z,4.13
2018-01-23T22:31:42.377Z,2.60
2018-01-23T22:34:10.517Z,3.57
2018-01-23T22:36:38.701Z,2.90
2018-01-23T22:39:07.157Z,2.60
2018-01-23T22:41:35.267Z,3.13
2018-01-23T22:44:04.220Z,3.33
2018-01-23T22:46:33.157Z,3.47
2018-01-23T22:49:01.312Z,3.13
2018-01-23T22:51:29.472Z,3.20
2018-01-23T22:53:57.585Z,3.87
2018-01-23T22:56:25.725Z,2.80
2018-01-23T22:58:54.664Z,3.63
2018-01-23T23:01:22.795Z,3.20
2018-01-23T23:03:52.101Z,2.97
2018-01-23T23:06:20.264Z,2.70
2018-01-23T23:08:48.408Z,2.90
2018-01-23T23:11:16.592Z,2.80
2018-01-23T23:13:45.476Z,3.50
2018-01-23T23:16:14.397Z,4.63
2018-01-23T23:18:43.309Z,4.33
2018-01-23T23:21:11.451Z,3.43
2018-01-23T23:23:41.344Z,3.93
2018-01-23T23:26:09.509Z,3.47
2018-01-23T23:28:37.642Z,3.60
2018-01-23T23:31:05.780Z,2.97
2018-01-23T23:33:33.936Z,3.27
2018-01-23T23:36:02.085Z,3.20
2018-01-23T23:38:31.001Z,3.13
2018-01-23T23:40:59.136Z,3.80
2018-01-23T23:43:28.051Z,2.73
2018-01-23T23:45:56.190Z,4.50
2018-01-23T23:48:24.330Z,3.13
2018-01-23T23:50:52.502Z,3.30
2018-01-23T23:53:21.403Z,3.60
2018-01-23T23:55:50.318Z,2.97
2018-01-23T23:58:18.448Z,2.73
